ADDS METAR Data INFO
IDs: Format: Raw Decoded Include TAF

Data at: 0256 UTC 21 Jan 2018

KAMG 210253Z AUTO 00000KT 10SM CLR 06/01 A3027 RMK AO2 SLP252 T00610011 50006
KAMG 210153Z AUTO 00000KT 10SM CLR 08/00 A3028 RMK AO2 SLP252 T00780000
KAMG 210053Z AUTO 00000KT 10SM CLR 07/02 A3026 RMK AO2 SLP247 T00720022
KAMG 202353Z AUTO 00000KT 10SM CLR 08/02 A3026 RMK AO2 SLP245 T00830017 10178 20083 53008
KAMG 202253Z AUTO 00000KT 10SM CLR 12/M01 A3024 RMK AO2 SLP241 T01221011
KAMG 202153Z AUTO 23003KT 10SM CLR 16/M05 A3024 RMK AO2 SLP240 T01561050
KAMG 202053Z AUTO 24003KT 10SM CLR 16/M07 A3023 RMK AO2 SLP237 T01611067 56020
KAMG 201953Z AUTO 00000KT 10SM CLR 17/M08 A3023 RMK AO2 SLP237 T01721083
KAMG 201853Z AUTO VRB03KT 10SM CLR 17/M09 A3024 RMK AO2 SLP241 T01671094
KAMG 201753Z AUTO 30008KT 10SM CLR 16/M10 A3029 RMK AO2 SLP256 T01611100 10161 21017 58020
KAMG 201653Z AUTO VRB03KT 10SM CLR 15/M09 A3032 RMK AO2 SLP268 T01501094
KAMG 201553Z AUTO 30003KT 10SM CLR 13/M08 A3034 RMK AO2 SLP273 T01281083
KAMG 201453Z AUTO 00000KT 9SM CLR 09/M05 A3035 RMK AO2 SLP276 T00891050 53020
KAMG 201353Z AUTO 00000KT 6SM HZ CLR 03/M01 A3032 RMK AO2 SLP268 T00331011
KAMG 201253Z AUTO 00000KT 5SM BR CLR M01/M03 A3030 RMK AO2 SLP261 T10111028
KAMG 201153Z AUTO 00000KT 7SM CLR M02/M04 A3029 RMK AO2 SLP257 T10171039 10006 21017 53003
KAMG 201053Z AUTO 00000KT 7SM CLR M02/M03 A3028 RMK AO2 SLP252 T10171033
KAMG 200953Z AUTO 00000KT 7SM CLR M01/M03 A3027 RMK AO2 SLP250 T10111028
KAMG 200853Z AUTO 00000KT 7SM CLR M01/M03 A3028 RMK AO2 SLP253 T10061028 53004
KAMG 200753Z AUTO 00000KT 8SM CLR M01/M03 A3027 RMK AO2 SLP251 T10061028
KAMG 200653Z AUTO 00000KT 9SM CLR M01/M03 A3026 RMK AO2 SLP246 T10061028
KAMG 200553Z AUTO 00000KT 9SM CLR 00/M03 A3027 RMK AO2 SLP249 T00001028 10050 21006 58003
KAMG 200453Z AUTO 00000KT 10SM CLR 01/M02 A3027 RMK AO2 SLP249 T00061022 401561050
KAMG 200353Z AUTO 00000KT 10SM CLR 01/M03 A3028 RMK AO2 SLP254 T00061028
KAMG 200253Z AUTO 00000KT 10SM CLR 01/M02 A3028 RMK AO2 SLP252 T00111022 51010
KAMG 200153Z AUTO 00000KT 10SM CLR 02/M01 A3027 RMK AO2 SLP251 T00171011
KAMG 200053Z AUTO 00000KT 9SM CLR 03/M02 A3026 RMK AO2 SLP249 T00281022
KAMG 192353Z AUTO 00000KT 10SM CLR 05/M02 A3025 RMK AO2 SLP243 T00501017 10156 20050 50000
KAMG 192253Z AUTO 00000KT 10SM CLR 09/M06 A3025 RMK AO2 SLP243 T00941056
KAMG 192153Z AUTO 26004KT 10SM CLR 14/M12 A3026 RMK AO2 SLP245 T01441122
KAMG 192053Z AUTO 28004KT 10SM CLR 15/M13 A3025 RMK AO2 SLP242 T01501128 56023
KAMG 191953Z AUTO 00000KT 10SM CLR 15/M11 A3026 RMK AO2 SLP246 T01501111
KAMG 191853Z AUTO VRB03KT 10SM CLR 14/M11 A3027 RMK AO2 SLP251 T01391106
KAMG 191753Z AUTO VRB06KT 10SM CLR 12/M10 A3031 RMK AO2 SLP265 T01221100 10122 21050 58018
KAMG 191653Z AUTO 29008KT 10SM CLR 11/M10 A3035 RMK AO2 SLP279 T01061100
KAMG 191553Z AUTO 29005KT 10SM CLR 08/M08 A3037 RMK AO2 SLP286 T00831078